createdAt,value
2023-05-01T00:01:30.657Z,4.03
2023-05-01T00:03:58.043Z,4.22
2023-05-01T00:06:25.464Z,4.05
2023-05-01T00:08:52.465Z,4.18
2023-05-01T00:11:19.458Z,4.20
2023-05-01T00:13:46.642Z,3.92
2023-05-01T00:16:13.950Z,4.03
2023-05-01T00:18:40.993Z,3.95
2023-05-01T00:21:08.019Z,4.00
2023-05-01T00:23:35.196Z,4.10
2023-05-01T00:26:02.287Z,3.72
2023-05-01T00:28:29.334Z,3.70
2023-05-01T00:30:57.608Z,3.45
2023-05-01T00:33:24.542Z,3.83
2023-05-01T00:35:52.933Z,3.00
2023-05-01T00:38:20.007Z,3.33
2023-05-01T00:40:47.550Z,3.97
2023-05-01T00:43:14.647Z,4.70
2023-05-01T00:45:45.489Z,4.50
2023-05-01T00:48:12.628Z,4.82
2023-05-01T00:50:39.973Z,4.50
2023-05-01T00:53:07.088Z,4.90
2023-05-01T00:55:36.061Z,4.22
2023-05-01T00:58:03.892Z,4.63
2023-05-01T01:00:31.369Z,4.45
2023-05-01T01:02:58.628Z,4.72
2023-05-01T01:05:30.575Z,3.92
2023-05-01T01:08:11.397Z,4.18
2023-05-01T01:10:53.006Z,4.53
2023-05-01T01:13:46.490Z,4.03
2023-05-01T01:16:27.295Z,4.40
2023-05-01T01:19:06.968Z,4.38
2023-05-01T01:21:43.296Z,4.68
2023-05-01T01:26:46.803Z,4.65
2023-05-01T01:29:34.871Z,4.57
2023-05-01T01:32:17.189Z,4.43
2023-05-01T01:34:54.400Z,4.22
2023-05-01T01:37:25.507Z,4.22
2023-05-01T01:40:04.341Z,4.85
2023-05-01T01:42:37.881Z,4.40
2023-05-01T01:45:15.733Z,4.32
2023-05-01T01:47:44.717Z,3.72
2023-05-01T01:50:14.771Z,3.60
2023-05-01T01:52:45.508Z,3.28
2023-05-01T01:55:15.468Z,2.47
2023-05-01T01:57:46.109Z,2.60
2023-05-01T02:00:16.612Z,2.72
2023-05-01T02:02:48.203Z,2.63
2023-05-01T02:05:18.060Z,2.67
2023-05-01T02:07:48.897Z,2.55
2023-05-01T02:10:18.037Z,2.72
2023-05-01T02:12:47.178Z,2.92
2023-05-01T02:15:18.467Z,2.75
2023-05-01T02:17:45.778Z,2.50
2023-05-01T02:20:14.005Z,2.45
2023-05-01T02:22:42.332Z,2.63
2023-05-01T02:25:12.513Z,2.85
2023-05-01T02:27:47.282Z,2.55
2023-05-01T02:30:15.425Z,2.87
2023-05-01T02:32:42.730Z,2.90
2023-05-01T02:35:10.612Z,3.00
2023-05-01T02:37:38.782Z,3.03
2023-05-01T02:40:07.675Z,3.00
2023-05-01T02:42:39.671Z,3.10
2023-05-01T02:45:12.662Z,2.70
2023-05-01T02:47:43.571Z,2.88
2023-05-01T02:50:11.352Z,2.90
2023-05-01T02:52:38.848Z,2.83
2023-05-01T02:55:26.486Z,2.70
2023-05-01T02:57:53.529Z,2.47
2023-05-01T03:00:20.993Z,2.35
2023-05-01T03:02:48.142Z,2.35
2023-05-01T03:05:16.233Z,2.15
2023-05-01T03:07:43.289Z,2.35
2023-05-01T03:10:11.397Z,2.15
2023-05-01T03:12:38.525Z,2.05
2023-05-01T03:15:06.208Z,2.25
2023-05-01T03:17:34.430Z,2.80
2023-05-01T03:20:01.589Z,2.88
2023-05-01T03:22:33.289Z,2.40
2023-05-01T03:25:01.030Z,2.33
2023-05-01T03:27:28.043Z,2.78
2023-05-01T03:29:55.577Z,2.90
2023-05-01T03:32:23.859Z,2.80
2023-05-01T03:34:52.576Z,3.03
2023-05-01T03:37:20.931Z,2.60
2023-05-01T03:39:48.966Z,3.13
2023-05-01T03:42:34.565Z,2.58
2023-05-01T03:45:09.964Z,3.30
2023-05-01T03:47:37.495Z,3.13
2023-05-01T03:50:07.657Z,3.22
2023-05-01T03:52:35.826Z,3.00
2023-05-01T03:55:03.217Z,2.70
2023-05-01T03:57:38.576Z,2.70
2023-05-01T04:00:07.452Z,2.90
2023-05-01T04:02:42.520Z,2.97
2023-05-01T04:05:13.581Z,2.78
2023-05-01T04:07:45.078Z,3.17
2023-05-01T04:10:12.084Z,3.00
2023-05-01T04:12:44.991Z,3.00
2023-05-01T04:15:13.691Z,3.10
2023-05-01T04:17:43.958Z,3.15
2023-05-01T04:20:11.505Z,2.92
2023-05-01T04:22:39.018Z,3.20
2023-05-01T04:25:06.690Z,3.33
2023-05-01T04:27:35.048Z,3.00
2023-05-01T04:30:02.111Z,3.72
2023-05-01T04:32:30.733Z,3.22
2023-05-01T04:34:57.942Z,3.15
2023-05-01T04:37:25.097Z,3.58
2023-05-01T04:39:52.179Z,3.60
2023-05-01T04:42:21.313Z,3.70
2023-05-01T04:44:48.567Z,3.13
2023-05-01T04:47:15.742Z,3.08
2023-05-01T04:49:42.760Z,3.15
2023-05-01T04:52:12.674Z,3.95
2023-05-01T04:54:52.057Z,3.28
2023-05-01T04:57:20.478Z,3.10
2023-05-01T04:59:48.445Z,3.53
2023-05-01T05:02:15.528Z,3.13
2023-05-01T05:04:42.535Z,3.60
2023-05-01T05:07:10.100Z,3.22
2023-05-01T05:09:59.616Z,3.17
2023-05-01T05:12:26.759Z,3.40
2023-05-01T05:14:53.799Z,2.97
2023-05-01T05:17:21.043Z,3.63
2023-05-01T05:19:48.364Z,3.22
2023-05-01T05:22:15.837Z,3.67
2023-05-01T05:25:04.576Z,3.30
2023-05-01T05:27:36.487Z,3.60
2023-05-01T05:30:07.966Z,3.15
2023-05-01T05:32:37.731Z,3.53
2023-05-01T05:35:06.612Z,3.00
2023-05-01T05:37:33.691Z,3.10
2023-05-01T05:40:01.375Z,2.88
2023-05-01T05:42:32.128Z,3.67
2023-05-01T05:45:05.100Z,3.22
2023-05-01T05:47:32.380Z,2.83
2023-05-01T05:49:59.732Z,3.67
2023-05-01T05:52:27.428Z,3.15
2023-05-01T05:54:54.987Z,2.78
2023-05-01T05:57:22.164Z,3.53
2023-05-01T05:59:51.310Z,2.92
2023-05-01T06:02:22.850Z,3.20
2023-05-01T06:04:50.134Z,3.35
2023-05-01T06:07:21.783Z,3.50
2023-05-01T06:09:49.274Z,3.05
2023-05-01T06:12:16.283Z,3.00
2023-05-01T06:14:43.556Z,3.15
2023-05-01T06:17:10.857Z,2.72
2023-05-01T06:19:38.174Z,3.10
2023-05-01T06:22:10.240Z,2.97
2023-05-01T06:24:44.742Z,3.20
2023-05-01T06:27:11.981Z,3.05
2023-05-01T06:29:39.156Z,3.20
2023-05-01T06:32:06.255Z,3.47
2023-05-01T06:34:33.262Z,3.10
2023-05-01T06:37:00.287Z,3.20
2023-05-01T06:39:27.299Z,3.08
2023-05-01T06:41:54.552Z,3.17
2023-05-01T06:44:32.763Z,3.35
2023-05-01T06:47:02.011Z,3.25
2023-05-01T06:49:29.350Z,2.88
2023-05-01T06:51:56.529Z,3.00
2023-05-01T06:54:23.547Z,3.20
2023-05-01T06:56:50.671Z,2.95
2023-05-01T06:59:17.673Z,3.30
2023-05-01T07:01:44.887Z,3.05
2023-05-01T07:04:12.154Z,3.13
2023-05-01T07:06:39.309Z,3.20
2023-05-01T07:09:06.585Z,3.35
2023-05-01T07:11:33.896Z,3.60
2023-05-01T07:14:01.508Z,3.15
2023-05-01T07:16:28.558Z,3.53
2023-05-01T07:18:55.608Z,3.45
2023-05-01T07:21:22.566Z,3.30
2023-05-01T07:23:49.601Z,2.75
2023-05-01T07:26:16.857Z,3.70
2023-05-01T07:28:43.887Z,3.50
2023-05-01T07:31:10.934Z,3.63
2023-05-01T07:33:38.169Z,3.30
2023-05-01T07:36:05.178Z,3.70
2023-05-01T07:38:32.656Z,3.55
2023-05-01T07:40:59.737Z,3.83
2023-05-01T07:43:26.728Z,4.13
2023-05-01T07:45:58.940Z,3.30
2023-05-01T07:48:27.579Z,3.55
2023-05-01T07:50:55.164Z,3.50
2023-05-01T07:53:25.061Z,3.25
2023-05-01T07:55:52.088Z,3.63
2023-05-01T07:58:19.354Z,3.40
2023-05-01T08:00:46.562Z,3.20
2023-05-01T08:03:13.735Z,3.20
2023-05-01T08:05:43.859Z,3.38
2023-05-01T08:08:10.879Z,3.35
2023-05-01T08:10:37.835Z,4.07
2023-05-01T08:13:04.796Z,3.30
2023-05-01T08:15:32.083Z,3.78
2023-05-01T08:17:59.088Z,3.28
2023-05-01T08:20:26.064Z,3.28
2023-05-01T08:22:53.200Z,3.10
2023-05-01T08:25:20.262Z,3.20
2023-05-01T08:27:47.697Z,3.00
2023-05-01T08:30:14.725Z,3.40
2023-05-01T08:32:41.729Z,3.22
2023-05-01T08:35:08.902Z,2.95
2023-05-01T08:37:36.024Z,3.15
2023-05-01T08:40:08.481Z,3.40
2023-05-01T08:42:37.558Z,3.17
2023-05-01T08:45:13.804Z,3.00
2023-05-01T08:47:41.041Z,2.85
2023-05-01T08:50:14.460Z,3.10
2023-05-01T08:52:43.361Z,3.40
2023-05-01T08:55:13.910Z,3.00
2023-05-01T08:57:48.521Z,3.30
2023-05-01T09:00:20.060Z,3.38
2023-05-01T09:02:49.853Z,3.45
2023-05-01T09:05:18.534Z,3.33
2023-05-01T09:07:46.744Z,3.53
2023-05-01T09:10:15.972Z,3.10
2023-05-01T09:12:47.420Z,3.30
2023-05-01T09:15:14.647Z,3.40
2023-05-01T09:17:43.533Z,2.85
2023-05-01T09:20:11.166Z,3.03
2023-05-01T09:22:38.821Z,3.03
2023-05-01T09:25:06.588Z,2.90
2023-05-01T09:27:40.407Z,3.20
2023-05-01T09:30:09.164Z,3.00
2023-05-01T09:32:36.715Z,3.35
2023-05-01T09:35:14.594Z,3.58
2023-05-01T09:37:41.851Z,3.30
2023-05-01T09:40:11.595Z,3.20
2023-05-01T09:42:49.587Z,2.88
2023-05-01T10:16:58.194Z,3.30
2023-05-01T10:19:25.673Z,3.40
2023-05-01T10:21:53.597Z,3.65
2023-05-01T10:24:21.092Z,3.42
2023-05-01T10:26:49.318Z,3.20
2023-05-01T10:29:17.498Z,3.13
2023-05-01T10:31:44.601Z,3.20
2023-05-01T10:34:18.623Z,3.20
2023-05-01T10:36:54.923Z,3.50
2023-05-01T10:41:59.675Z,3.28
2023-05-01T10:44:27.437Z,3.70
2023-05-01T10:46:55.592Z,3.38
2023-05-01T10:49:23.097Z,3.35
2023-05-01T10:51:59.293Z,3.20
2023-05-01T10:54:30.641Z,3.35
2023-05-01T10:57:01.968Z,3.28
2023-05-01T11:00:04.176Z,3.25
2023-05-01T11:02:31.295Z,3.70
2023-05-01T11:04:59.098Z,3.58
2023-05-01T11:07:27.255Z,3.53
2023-05-01T11:09:55.871Z,3.33
2023-05-01T11:12:47.488Z,3.47
2023-05-01T11:15:27.878Z,3.08
2023-05-01T11:17:56.210Z,3.20
2023-05-01T11:20:26.179Z,3.50
2023-05-01T11:22:54.720Z,3.78
2023-05-01T11:25:27.441Z,3.17
2023-05-01T11:27:56.826Z,3.33
2023-05-01T11:30:24.372Z,3.58
2023-05-01T11:36:03.298Z,3.33
2023-05-01T11:38:30.621Z,3.75
2023-05-01T11:41:00.193Z,3.40
2023-05-01T11:43:27.621Z,3.47
2023-05-01T11:45:55.341Z,3.22
2023-05-01T11:48:22.519Z,4.07
2023-05-01T11:50:50.080Z,3.75
2023-05-01T11:53:17.775Z,3.50
2023-05-01T11:55:45.530Z,2.95
2023-05-01T11:58:13.193Z,3.42
2023-05-01T12:00:42.751Z,3.92
2023-05-01T12:03:12.590Z,3.50
2023-05-01T12:05:42.984Z,3.30
2023-05-01T12:08:10.088Z,3.17
2023-05-01T12:10:38.506Z,3.15
2023-05-01T12:13:07.050Z,3.28
2023-05-01T12:15:39.815Z,3.03
2023-05-01T12:18:07.458Z,3.25
2023-05-01T12:20:35.876Z,3.30
2023-05-01T12:23:05.737Z,3.15
2023-05-01T12:25:34.389Z,3.33
2023-05-01T12:28:10.450Z,3.22
2023-05-01T12:30:38.263Z,2.95
2023-05-01T12:33:13.531Z,3.10
2023-05-01T12:35:42.278Z,3.35
2023-05-01T12:38:19.110Z,3.55
2023-05-01T12:40:59.469Z,3.30
2023-05-01T12:43:37.440Z,3.25
2023-05-01T12:46:06.011Z,3.45
2023-05-01T12:48:34.449Z,3.65
2023-05-01T12:51:01.757Z,3.60
2023-05-01T12:53:29.930Z,3.20
2023-05-01T12:55:58.509Z,3.17
2023-05-01T12:58:38.779Z,3.17
2023-05-01T13:01:06.928Z,3.00
2023-05-01T13:03:35.704Z,2.85
2023-05-01T13:06:05.796Z,3.10
2023-05-01T13:08:34.674Z,3.05
2023-05-01T13:11:10.374Z,3.72
2023-05-01T13:13:37.794Z,3.92
2023-05-01T13:16:26.496Z,3.63
2023-05-01T13:18:53.834Z,3.40
2023-05-01T13:21:25.050Z,3.55
2023-05-01T13:23:55.636Z,3.60
2023-05-01T13:26:28.560Z,2.60
2023-05-01T13:28:57.288Z,2.60
2023-05-01T13:31:24.490Z,2.70
2023-05-01T13:33:54.793Z,2.72
2023-05-01T13:36:26.489Z,2.85
2023-05-01T13:38:56.416Z,2.50
2023-05-01T13:41:28.559Z,2.50
2023-05-01T13:43:57.381Z,2.80
2023-05-01T13:46:27.157Z,2.70
2023-05-01T13:48:54.400Z,3.03
2023-05-01T13:51:23.987Z,2.92
2023-05-01T13:53:53.746Z,2.70
2023-05-01T13:56:22.174Z,2.30
2023-05-01T13:58:50.599Z,2.85
2023-05-01T14:01:23.593Z,2.72
2023-05-01T14:03:50.812Z,2.78
2023-05-01T14:06:20.126Z,3.05
2023-05-01T14:08:48.833Z,2.65
2023-05-01T14:11:16.139Z,2.72
2023-05-01T14:13:45.612Z,2.83
2023-05-01T14:16:25.060Z,2.72
2023-05-01T14:18:55.436Z,2.50
2023-05-01T14:21:27.357Z,2.80
2023-05-01T14:23:55.843Z,2.60
2023-05-01T14:26:26.890Z,2.47
2023-05-01T14:28:54.757Z,2.72
2023-05-01T14:31:21.821Z,2.65
2023-05-01T14:33:58.566Z,2.40
2023-05-01T14:36:26.887Z,2.55
2023-05-01T14:38:57.128Z,2.53
2023-05-01T14:41:24.320Z,2.72
2023-05-01T14:43:53.526Z,3.10
2023-05-01T14:46:45.920Z,3.00
2023-05-01T14:49:20.124Z,2.70
2023-05-01T14:51:47.835Z,2.70
2023-05-01T14:54:16.064Z,2.97
2023-05-01T14:56:44.194Z,2.50
2023-05-01T14:59:12.486Z,2.40
2023-05-01T15:01:40.278Z,3.00
2023-05-01T15:04:07.925Z,3.88
2023-05-01T15:06:35.270Z,2.70
2023-05-01T15:09:02.791Z,2.60
2023-05-01T15:11:30.582Z,2.70
2023-05-01T15:13:57.572Z,2.58
2023-05-01T15:16:24.727Z,2.80
2023-05-01T15:18:51.784Z,2.70
2023-05-01T15:21:18.836Z,2.83
2023-05-01T15:23:46.436Z,2.75
2023-05-01T15:26:13.954Z,2.53
2023-05-01T15:28:41.063Z,2.75
2023-05-01T15:31:08.200Z,2.88
2023-05-01T15:33:35.321Z,2.50
2023-05-01T15:36:02.405Z,2.80
2023-05-01T15:38:30.306Z,2.80
2023-05-01T15:40:57.309Z,3.50
2023-05-01T15:43:24.541Z,2.70
2023-05-01T15:45:51.781Z,2.80
2023-05-01T15:48:19.162Z,3.05
2023-05-01T15:50:48.788Z,2.83
2023-05-01T15:53:17.293Z,2.60
2023-05-01T15:55:44.418Z,2.67
2023-05-01T15:58:11.848Z,2.90
2023-05-01T16:00:39.853Z,2.83
2023-05-01T16:03:08.504Z,2.80
2023-05-01T16:05:37.207Z,2.78
2023-05-01T16:08:06.487Z,2.58
2023-05-01T16:10:37.413Z,2.55
2023-05-01T16:13:06.470Z,3.05
2023-05-01T16:15:34.107Z,2.90
2023-05-01T16:18:04.124Z,2.78
2023-05-01T16:20:39.071Z,2.90
2023-05-01T16:23:06.234Z,2.80
2023-05-01T16:25:33.226Z,2.80
2023-05-01T16:28:00.212Z,2.80
2023-05-01T16:30:28.302Z,3.00
2023-05-01T16:32:55.545Z,3.25
2023-05-01T16:35:27.984Z,2.65
2023-05-01T16:37:55.608Z,2.70
2023-05-01T16:40:23.175Z,3.28
2023-05-01T16:42:52.252Z,3.33
2023-05-01T16:45:20.138Z,2.97
2023-05-01T16:47:47.777Z,3.03
2023-05-01T16:50:16.511Z,3.00
2023-05-01T16:52:43.683Z,3.08
2023-05-01T16:55:10.711Z,2.80
2023-05-01T16:57:37.803Z,2.85
2023-05-01T17:00:05.599Z,3.20
2023-05-01T17:02:34.023Z,3.03
2023-05-01T17:05:02.587Z,3.22
2023-05-01T17:07:29.783Z,4.07
2023-05-01T17:09:56.933Z,4.22
2023-05-01T17:12:24.259Z,4.00
2023-05-01T17:14:53.866Z,3.58
2023-05-01T17:17:21.616Z,3.10
2023-05-01T17:19:48.902Z,3.30
2023-05-01T17:22:15.962Z,4.40
2023-05-01T17:24:42.933Z,3.60
2023-05-01T17:27:10.184Z,3.88
2023-05-01T17:29:37.251Z,3.63
2023-05-01T17:32:04.720Z,3.97
2023-05-01T17:34:31.823Z,3.47
2023-05-01T17:36:59.012Z,4.00
2023-05-01T17:39:27.637Z,4.47
2023-05-01T17:41:54.876Z,5.07
2023-05-01T17:44:21.852Z,3.75
2023-05-01T17:46:48.989Z,4.97
2023-05-01T17:49:16.432Z,3.63
2023-05-01T17:51:45.390Z,3.55
2023-05-01T17:54:12.819Z,3.17
2023-05-01T17:56:39.860Z,3.38
2023-05-01T17:59:07.365Z,3.25
2023-05-01T18:01:34.807Z,3.08
2023-05-01T18:04:02.250Z,3.95
2023-05-01T18:06:29.578Z,3.35
2023-05-01T18:08:56.622Z,3.17
2023-05-01T18:11:55.589Z,2.70
2023-05-01T18:14:22.632Z,3.17
2023-05-01T18:16:49.731Z,2.92
2023-05-01T18:19:16.993Z,2.90
2023-05-01T18:21:43.998Z,3.10
2023-05-01T18:24:11.096Z,3.00
2023-05-01T18:26:38.071Z,2.88
2023-05-01T18:29:05.069Z,3.22
2023-05-01T18:31:34.131Z,2.72
2023-05-01T18:34:01.946Z,2.78
2023-05-01T18:36:28.946Z,3.22
2023-05-01T18:38:56.279Z,3.00
2023-05-01T18:41:25.616Z,3.10
2023-05-01T18:43:55.612Z,3.25
2023-05-01T18:46:24.250Z,3.00
2023-05-01T18:48:51.382Z,2.60
2023-05-01T18:51:18.484Z,2.60
2023-05-01T18:53:45.515Z,2.92
2023-05-01T18:56:12.816Z,2.80
2023-05-01T19:03:29.114Z,2.75
2023-05-01T19:05:56.467Z,2.78
2023-05-01T19:08:23.508Z,2.88
2023-05-01T19:10:50.568Z,2.50
2023-05-01T19:13:17.707Z,3.28
2023-05-01T19:15:44.845Z,3.20
2023-05-01T19:18:12.212Z,2.92
2023-05-01T19:20:39.222Z,3.00
2023-05-01T19:23:06.376Z,3.08
2023-05-01T19:25:34.353Z,2.38
2023-05-01T19:28:02.184Z,2.58
2023-05-01T19:30:29.533Z,2.50
2023-05-01T19:33:28.752Z,3.00
2023-05-01T19:35:56.105Z,2.75
2023-05-01T19:38:23.198Z,2.90
2023-05-01T19:40:50.533Z,2.78
2023-05-01T19:43:17.657Z,2.40
2023-05-01T19:45:44.785Z,2.45
2023-05-01T19:48:11.814Z,2.05
2023-05-01T19:50:39.392Z,2.45
2023-05-01T19:53:06.464Z,2.70
2023-05-01T19:55:33.726Z,2.60
2023-05-01T19:58:00.724Z,2.85
2023-05-01T20:00:28.185Z,2.17
2023-05-01T20:02:55.591Z,2.58
2023-05-01T20:05:28.028Z,2.60
2023-05-01T20:07:55.854Z,2.45
2023-05-01T20:10:23.038Z,2.10
2023-05-01T20:12:50.141Z,2.67
2023-05-01T20:15:17.361Z,2.22
2023-05-01T20:17:50.037Z,2.28
2023-05-01T20:20:19.339Z,2.30
2023-05-01T20:22:46.853Z,2.33
2023-05-01T20:25:14.319Z,2.42
2023-05-01T20:27:41.731Z,2.20
2023-05-01T20:30:13.425Z,2.28
2023-05-01T20:32:44.143Z,2.40
2023-05-01T20:35:11.757Z,2.67
2023-05-01T20:37:38.854Z,2.33
2023-05-01T20:40:07.970Z,2.70
2023-05-01T20:42:35.044Z,2.20
2023-05-01T20:45:02.078Z,2.35
2023-05-01T20:47:29.662Z,2.40
2023-05-01T20:49:57.118Z,2.17
2023-05-01T20:52:24.387Z,2.50
2023-05-01T20:54:51.766Z,2.50
2023-05-01T20:57:18.810Z,2.38
2023-05-01T20:59:50.083Z,2.47
2023-05-01T21:02:17.470Z,2.80
2023-05-01T21:04:46.345Z,2.30
2023-05-01T21:07:13.471Z,2.33
2023-05-01T21:09:46.567Z,2.33
2023-05-01T21:12:14.702Z,2.95
2023-05-01T21:14:42.257Z,2.40
2023-05-01T21:17:09.685Z,2.50
2023-05-01T21:19:44.714Z,2.88
2023-05-01T21:22:14.396Z,2.78
2023-05-01T21:24:44.486Z,2.20
2023-05-01T21:27:12.561Z,2.65
2023-05-01T21:29:40.905Z,2.40
2023-05-01T21:32:08.541Z,2.50
2023-05-01T21:34:35.835Z,2.13
2023-05-01T21:37:03.130Z,2.00
2023-05-01T21:39:31.483Z,2.80
2023-05-01T21:41:58.823Z,2.15
2023-05-01T21:44:30.847Z,2.40
2023-05-01T21:46:58.382Z,2.13
2023-05-01T21:49:28.534Z,1.90
2023-05-01T21:51:59.838Z,2.38
2023-05-01T21:54:29.452Z,2.33
2023-05-01T21:57:00.764Z,2.25
2023-05-01T21:59:35.139Z,2.15
2023-05-01T22:02:08.495Z,2.20
2023-05-01T22:04:35.856Z,2.20
2023-05-01T22:07:03.564Z,2.20
2023-05-01T22:09:30.721Z,2.20
2023-05-01T22:12:00.771Z,2.03
2023-05-01T22:14:36.625Z,2.17
2023-05-01T22:17:10.948Z,2.10
2023-05-01T22:19:38.043Z,2.33
2023-05-01T22:22:05.080Z,1.95
2023-05-01T22:24:32.185Z,1.90
2023-05-01T22:26:59.208Z,2.35
2023-05-01T22:29:26.280Z,2.00
2023-05-01T22:31:53.319Z,2.30
2023-05-01T22:34:20.376Z,2.15
2023-05-01T22:36:47.379Z,2.55
2023-05-01T22:39:14.342Z,2.22
2023-05-01T22:41:41.292Z,1.98
2023-05-01T22:45:17.255Z,2.00
2023-05-01T22:47:44.279Z,1.85
2023-05-01T22:50:11.573Z,2.03
2023-05-01T22:52:38.568Z,2.00
2023-05-01T22:56:15.237Z,2.25
2023-05-01T22:58:42.998Z,2.03
2023-05-01T23:01:10.115Z,2.67
2023-05-01T23:03:38.969Z,2.33
2023-05-01T23:06:06.617Z,2.20
2023-05-01T23:08:34.175Z,2.15
2023-05-01T23:11:01.128Z,2.10
2023-05-01T23:14:00.258Z,2.00
2023-05-01T23:16:27.926Z,2.38
2023-05-01T23:18:56.442Z,2.20
2023-05-01T23:21:23.425Z,2.20
2023-05-01T23:24:59.360Z,2.10
2023-05-01T23:27:26.983Z,2.42
2023-05-01T23:29:59.447Z,2.40
2023-05-01T23:32:29.508Z,2.53
2023-05-01T23:35:03.844Z,2.30
2023-05-01T23:37:30.836Z,2.58
2023-05-01T23:39:59.712Z,2.40
2023-05-01T23:42:28.245Z,2.30
2023-05-01T23:44:56.057Z,2.10
2023-05-01T23:47:23.474Z,2.30
2023-05-01T23:49:51.183Z,2.35
2023-05-01T23:52:18.442Z,2.33
2023-05-01T23:54:45.439Z,2.10
2023-05-01T23:57:12.472Z,2.22
2023-05-01T23:59:39.593Z,2.70
